Port Mcnicoll, Canada
Current Conditions -  °F | °C
As of 2:13 PM on Friday 21 Nov 2014 (Local Time) from CYQA Reporting Station
Light Snow Light Snow  
Wind Chill: 13°   Ceiling: 3000
Heat Index: 19°   Visibility: 9mi
Dew Point: 16°   Wind: 5mph
Humidity: 86%   Direction: 160°SSE
Pressure: 30.28"   Gusts: NA
Location:  44.75°N, 79.82°W
Report Text: CYQA 211913Z AUTO 16004KT 9SM -SN SCT016 BKN030 BKN037 OVC050 M07/M09 A3028 RMK SLP275
Loading
Personal Weather Stations






























Interactive Weather Map New forecast layout! Learn more

10-Day Weather Forecast

Advertisements
Track Severe Weather on mobile